Kezdőlap
METAR-TAF:

METAR-TAF

Repülőterek :

Trang, Thaiföld

földrajzi szélesség: 07-31N, földrajzi hosszúság: 099-37E, magasság: 14 m

Jelenlegi meteorológiai megfigyelések

A jelentés 42 perccel ezelõtt készült, 09:00 UTC
Dél-délnyugati szél 8 kt
Hőmérséklet 34°C
Páratartalom 56%
Légköri nyomás 1005 hPa
Látótávolság 10 km, vagy több
Kevés felhő 3000 lábon

METAR: VTST 170900Z 21008KT 9999 FEW030 34/24 Q1005 NOSIG

Idő: 16:42 (09:42 UTC)

Előrejelzés

A jelentés 4 órával és 42 perccel ezelõtt készült, 05:00 UTC
Az előrejelzés 17-én 06 óra UTC és 18-én 06 óra UTC között érvényes
Kelet-északkeleti szél 6 kt
Látótávolság 10 km, vagy több
Kevés felhő 3000 lábon

TAF: VTST 170500Z 1706/1806 06006KT 9999 FEW030

Meteorológiai megfigyelések és előrejelzések több, mint 4000 repülőtéren (METAR és TAF jelentéseket).

A térképen piros és sárga pontok jelzik az elérhető meteorológiai állomásokat.

Mozgassa az egeret a pont fölött, hogy megjelenjen az állomás neve.

Azután kattintson az időjárási megfigyelések és előrejelzések megtekintéséhez.

A térkép megváltoztatása: kattintson a fekete keresztel jelölt zöld gombra ráközelítéshez, a vonallal jelölt zöld gombra távolításhoz, vagy a zöld nyilakra a szomszédos térképek eléréséhez.


METAR-TAF: